Time;durP1;ratioP1;P1;durP2;ratioP2;P2;SDS_P1;SDS_P2;PMS_P1;PMS_P2;Temp;Humidity;BMP_temperature;BMP_pressure;BME280_temperature;BME280_humidity;BME280_pressure;Samples;Min_cycle;Max_cycle;Signal;HPM_P1;HPM_P2
2022/07/27 00:01:09;;;;;;;1.93;1.00;;;;;;;15.55;64.76;100597.75;5097192;28;20479;-67
2022/07/27 00:03:37;;;;;;;3.33;0.87;;;;;;;15.64;65.04;100591.38;5098485;28;20484;-67
2022/07/27 00:06:04;;;;;;;2.07;1.20;;;;;;;15.51;65.58;100593.69;5096777;28;20479;-67
2022/07/27 00:08:31;;;;;;;2.40;1.00;;;;;;;15.45;65.92;100589.81;5098133;28;20419;-67
2022/07/27 00:10:58;;;;;;;4.67;1.10;;;;;;;15.49;65.79;100598.41;5097772;28;21000;-67
2022/07/27 00:13:25;;;;;;;6.40;1.43;;;;;;;15.48;66.13;100594.03;5098736;28;20454;-67
2022/07/27 00:15:52;;;;;;;3.80;1.20;;;;;;;15.49;66.30;100603.81;5096679;28;20475;-67
2022/07/27 00:18:19;;;;;;;1.93;0.90;;;;;;;15.46;66.90;100598.75;5097024;28;20861;-67
2022/07/27 00:20:47;;;;;;;4.77;1.17;;;;;;;15.40;67.06;100597.56;5096736;28;20533;-68
2022/07/27 00:23:14;;;;;;;2.73;1.10;;;;;;;15.33;68.60;100597.34;5097192;28;20470;-68
2022/07/27 00:25:41;;;;;;;3.60;1.27;;;;;;;15.34;68.72;100599.03;5097248;28;20462;-67
2022/07/27 00:28:07;;;;;;;15.90;1.70;;;;;;;15.34;69.47;100600.88;5098116;28;20786;-65
2022/07/27 00:30:34;;;;;;;2.90;1.13;;;;;;;15.27;68.68;100595.28;5096056;28;20466;-67
2022/07/27 00:33:01;;;;;;;4.63;1.03;;;;;;;15.30;68.52;100589.59;5097883;28;20459;-65
2022/07/27 00:35:27;;;;;;;6.73;1.53;;;;;;;15.30;68.83;100589.59;5097114;28;20474;-65
2022/07/27 00:37:56;;;;;;;7.27;1.33;;;;;;;15.35;68.98;100592.63;5096475;28;20478;-66
2022/07/27 00:40:23;;;;;;;5.00;1.47;;;;;;;15.27;69.02;100586.38;5096816;28;20878;-65
2022/07/27 00:42:50;;;;;;;2.23;1.17;;;;;;;15.30;68.47;100586.91;5097199;28;20449;-65
2022/07/27 00:45:17;;;;;;;4.43;1.33;;;;;;;15.29;68.51;100590.59;5096228;28;20447;-66
2022/07/27 00:47:43;;;;;;;3.73;1.33;;;;;;;15.34;68.00;100592.81;5095975;28;20494;-66
2022/07/27 00:50:11;;;;;;;7.17;1.20;;;;;;;15.31;67.46;100582.34;5096519;28;20872;-67
2022/07/27 00:52:38;;;;;;;4.10;1.40;;;;;;;15.32;67.85;100587.56;5096925;28;20484;-66
2022/07/27 00:55:07;;;;;;;6.20;1.40;;;;;;;15.29;68.45;100592.44;5098226;28;20478;-67
2022/07/27 00:57:34;;;;;;;7.20;1.40;;;;;;;15.28;68.62;100590.78;5097795;28;20459;-67
2022/07/27 01:00:02;;;;;;;3.07;1.00;;;;;;;15.24;69.08;100590.22;5097514;28;20475;-67
2022/07/27 01:02:29;;;;;;;3.27;1.83;;;;;;;15.21;69.07;100591.41;5097417;28;20509;-66
2022/07/27 01:04:56;;;;;;;3.50;1.50;;;;;;;15.27;68.42;100589.91;5098497;28;20609;-67
2022/07/27 01:07:22;;;;;;;3.53;1.50;;;;;;;15.26;68.30;100580.16;5096345;28;20490;-66
2022/07/27 01:09:58;;;;;;;5.50;1.67;;;;;;;15.21;68.05;100586.03;5098254;28;20416;-65
2022/07/27 01:12:28;;;;;;;6.70;2.10;;;;;;;15.14;68.60;100578.78;5097094;28;20475;-65
2022/07/27 01:14:56;;;;;;;8.30;1.83;;;;;;;15.07;68.69;100582.09;5097344;28;20465;-66
2022/07/27 01:17:24;;;;;;;2.27;1.20;;;;;;;14.99;69.46;100590.13;5098534;28;20474;-66
2022/07/27 01:19:51;;;;;;;4.30;1.53;;;;;;;15.04;69.62;100585.09;5101366;28;20479;-66
2022/07/27 01:22:20;;;;;;;4.40;1.63;;;;;;;15.02;69.44;100591.69;5099801;28;20517;-66
2022/07/27 01:24:46;;;;;;;4.97;1.83;;;;;;;14.97;69.03;100580.53;5101638;28;21011;-66
2022/07/27 01:27:13;;;;;;;3.70;1.73;;;;;;;14.91;69.29;100590.09;5100773;28;20862;-66
2022/07/27 01:29:41;;;;;;;4.90;1.73;;;;;;;14.77;69.96;100585.31;5100259;28;20449;-66
2022/07/27 01:32:07;;;;;;;5.20;1.67;;;;;;;14.85;70.13;100586.19;5100071;28;20482;-66
2022/07/27 01:34:34;;;;;;;3.40;1.57;;;;;;;14.85;70.26;100590.75;5100626;28;20438;-65
2022/07/27 01:37:01;;;;;;;8.00;1.97;;;;;;;14.88;70.33;100593.13;5098609;28;20619;-66
2022/07/27 01:39:30;;;;;;;3.90;1.70;;;;;;;14.92;69.74;100593.63;5100639;28;20462;-66
2022/07/27 01:41:57;;;;;;;4.00;1.50;;;;;;;14.88;70.18;100591.25;5099394;28;20486;-66
2022/07/27 01:44:23;;;;;;;3.60;1.73;;;;;;;14.85;70.18;100591.56;5099857;28;20420;-66
2022/07/27 01:46:50;;;;;;;4.50;1.50;;;;;;;14.86;70.00;100592.44;5098219;28;20498;-66
2022/07/27 01:49:17;;;;;;;2.80;1.83;;;;;;;14.74;70.03;100581.09;5100243;28;20456;-66
2022/07/27 01:51:44;;;;;;;4.70;1.60;;;;;;;14.69;70.48;100589.63;5098884;28;20474;-66
2022/07/27 01:54:11;;;;;;;4.13;1.53;;;;;;;14.61;70.75;100586.88;5100853;28;20449;-66
2022/07/27 01:56:40;;;;;;;5.00;2.17;;;;;;;14.73;70.90;100583.94;5099395;28;21129;-66
2022/07/27 01:59:08;;;;;;;6.93;1.40;;;;;;;14.60;71.13;100585.22;5099911;28;20882;-66
2022/07/27 02:01:34;;;;;;;3.37;1.43;;;;;;;14.53;71.11;100586.84;5099316;28;20482;-66
2022/07/27 02:04:01;;;;;;;3.37;1.53;;;;;;;14.63;71.06;100587.59;5099989;28;20540;-66
2022/07/27 02:06:28;;;;;;;5.73;1.60;;;;;;;14.54;71.21;100583.13;5098319;28;20467;-66
2022/07/27 02:08:54;;;;;;;3.93;1.70;;;;;;;14.53;72.13;100583.28;5100299;28;20488;-66
2022/07/27 02:14:06;;;;;;;4.73;1.63;;;;;;;14.60;71.48;100581.66;5099209;28;20414;-66
2022/07/27 02:16:33;;;;;;;2.30;1.53;;;;;;;14.61;71.30;100583.38;5098876;28;20475;-66
2022/07/27 02:19:00;;;;;;;3.60;1.77;;;;;;;14.57;72.21;100587.34;5100297;28;20481;-66
2022/07/27 02:21:27;;;;;;;4.70;2.30;;;;;;;14.55;72.02;100583.97;5097513;28;20475;-66
2022/07/27 02:23:53;;;;;;;2.67;2.30;;;;;;;14.58;71.94;100581.84;5100098;28;20484;-67
2022/07/27 02:26:20;;;;;;;3.53;1.47;;;;;;;14.53;72.04;100585.97;5099031;28;20467;-66
2022/07/27 02:28:47;;;;;;;6.27;2.00;;;;;;;14.41;72.57;100583.56;5098169;28;20438;-67
2022/07/27 02:31:15;;;;;;;4.90;1.70;;;;;;;14.38;72.93;100586.53;5099236;28;20479;-66
2022/07/27 02:33:42;;;;;;;6.97;1.50;;;;;;;14.30;72.98;100595.41;5099540;28;20431;-67
2022/07/27 02:36:08;;;;;;;3.90;2.10;;;;;;;14.29;73.34;100598.25;5097680;28;20518;-67
2022/07/27 02:38:35;;;;;;;5.23;2.07;;;;;;;14.13;74.09;100597.13;5099447;28;20426;-66
2022/07/27 02:41:02;;;;;;;4.33;1.70;;;;;;;14.00;74.74;100591.28;5098376;28;20506;-66
2022/07/27 02:43:28;;;;;;;3.60;1.60;;;;;;;13.87;74.91;100594.38;5098647;28;20428;-66
2022/07/27 02:45:55;;;;;;;1.93;1.40;;;;;;;13.87;75.17;100597.06;5097362;28;20506;-66
2022/07/27 02:48:23;;;;;;;6.63;1.70;;;;;;;13.81;75.66;100599.50;5099110;28;20435;-67
2022/07/27 02:50:50;;;;;;;4.80;1.80;;;;;;;13.82;75.77;100596.69;5097955;28;20946;-66
2022/07/27 02:53:17;;;;;;;3.40;1.70;;;;;;;13.71;75.70;100600.44;5099177;28;20489;-66
2022/07/27 02:55:43;;;;;;;3.30;1.50;;;;;;;13.66;76.32;100591.13;5097959;28;20501;-66
2022/07/27 02:58:10;;;;;;;8.50;3.40;;;;;;;13.60;76.61;100594.44;5099018;28;20450;-66
2022/07/27 03:00:37;;;;;;;3.73;2.00;;;;;;;13.67;76.86;100599.03;5098515;28;20471;-66
2022/07/27 03:03:04;;;;;;;4.50;2.00;;;;;;;13.75;76.66;100598.28;5098942;28;20430;-66
2022/07/27 03:05:32;;;;;;;3.30;1.57;;;;;;;13.77;76.35;100596.28;5097204;28;20462;-66
2022/07/27 03:07:59;;;;;;;4.33;1.50;;;;;;;13.84;76.11;100591.97;5098871;28;20451;-66
2022/07/27 03:10:25;;;;;;;2.80;1.47;;;;;;;13.97;75.87;100599.66;5098311;28;20431;-66
2022/07/27 03:12:52;;;;;;;8.20;2.00;;;;;;;13.94;76.03;100600.81;5097935;28;20439;-67
2022/07/27 03:15:19;;;;;;;2.87;1.73;;;;;;;13.98;75.99;100593.28;5098038;28;20443;-67
2022/07/27 03:17:46;;;;;;;2.37;1.50;;;;;;;13.99;75.57;100599.50;5098050;28;20482;-66
2022/07/27 03:20:12;;;;;;;4.83;2.00;;;;;;;13.98;75.44;100590.59;5097435;28;20510;-65
2022/07/27 03:22:41;;;;;;;4.40;1.80;;;;;;;14.07;75.38;100592.34;5098022;28;20972;-66
2022/07/27 03:25:08;;;;;;;6.30;1.93;;;;;;;14.04;75.20;100595.34;5098409;28;20432;-66
2022/07/27 03:27:36;;;;;;;4.37;1.73;;;;;;;13.98;75.31;100587.06;5097885;28;20463;-66
2022/07/27 03:30:02;;;;;;;2.93;1.40;;;;;;;14.00;75.25;100595.81;5098966;28;20461;-66
2022/07/27 03:32:29;;;;;;;6.70;2.20;;;;;;;13.98;75.25;100592.44;5098162;28;20477;-67
2022/07/27 03:34:56;;;;;;;2.73;2.00;;;;;;;14.08;75.08;100595.91;5097620;28;20492;-66
2022/07/27 03:37:22;;;;;;;4.17;2.03;;;;;;;14.12;75.29;100594.59;5097827;28;20622;-66
2022/07/27 03:39:50;;;;;;;3.57;2.00;;;;;;;14.07;74.81;100600.41;5098921;28;20463;-67
2022/07/27 03:42:17;;;;;;;4.60;1.93;;;;;;;14.07;75.07;100602.28;5097001;28;20489;-66
2022/07/27 03:44:44;;;;;;;2.30;1.70;;;;;;;14.05;75.06;100598.91;5098423;28;20449;-66
2022/07/27 03:47:11;;;;;;;2.67;1.43;;;;;;;14.04;74.81;100599.88;5096105;28;20479;-66
2022/07/27 03:49:37;;;;;;;3.10;2.13;;;;;;;14.08;75.31;100596.75;5097639;28;20438;-66
2022/07/27 03:52:05;;;;;;;4.83;1.80;;;;;;;14.10;75.70;100602.81;5097177;28;20478;-67
2022/07/27 03:54:31;;;;;;;6.97;1.90;;;;;;;14.16;74.90;100606.72;5098466;28;20424;-66
2022/07/27 03:57:00;;;;;;;3.60;2.23;;;;;;;14.24;74.63;100605.94;5096508;28;20475;-66
2022/07/27 03:59:27;;;;;;;6.07;2.53;;;;;;;14.25;74.37;100610.31;5098414;28;20455;-67
2022/07/27 04:01:54;;;;;;;7.00;2.50;;;;;;;14.28;74.83;100600.06;5097455;28;20552;-66
2022/07/27 04:04:21;;;;;;;2.87;1.37;;;;;;;14.28;74.58;100597.38;5098129;28;20431;-66
2022/07/27 04:06:48;;;;;;;2.70;1.53;;;;;;;14.33;74.71;100602.31;5096812;28;20474;-66
2022/07/27 04:09:15;;;;;;;5.83;1.60;;;;;;;14.34;74.89;100601.31;5098247;28;20476;-66
2022/07/27 04:11:43;;;;;;;1.50;1.17;;;;;;;14.34;75.19;100597.78;5096514;28;20542;-67
2022/07/27 04:14:11;;;;;;;3.90;1.60;;;;;;;14.37;74.23;100600.16;5097818;28;20488;-65
2022/07/27 04:16:38;;;;;;;3.67;1.73;;;;;;;14.40;74.50;100602.53;5097161;28;20532;-67
2022/07/27 04:19:05;;;;;;;2.70;1.47;;;;;;;14.35;74.42;100605.69;5096976;28;20454;-66
2022/07/27 04:21:33;;;;;;;3.57;1.43;;;;;;;14.42;74.40;100595.16;5096767;28;20483;-66
2022/07/27 04:24:00;;;;;;;4.80;1.90;;;;;;;14.39;73.95;100601.69;5098206;28;20437;-66
2022/07/27 04:26:26;;;;;;;4.17;2.13;;;;;;;14.47;73.70;100604.44;5096617;28;20721;-66
2022/07/27 04:28:53;;;;;;;4.17;2.00;;;;;;;14.37;74.03;100600.97;5097589;28;20428;-67
2022/07/27 04:31:21;;;;;;;4.10;1.90;;;;;;;14.45;74.30;100619.88;5096962;28;20475;-66
2022/07/27 04:33:48;;;;;;;3.70;1.53;;;;;;;14.47;74.03;100620.56;5097403;28;20455;-66
2022/07/27 04:36:15;;;;;;;3.80;1.70;;;;;;;14.64;73.06;100612.66;5096449;28;20489;-66
2022/07/27 04:38:42;;;;;;;6.60;1.77;;;;;;;14.55;73.65;100617.09;5097869;28;20420;-66
2022/07/27 04:41:09;;;;;;;4.53;1.90;;;;;;;14.51;73.30;100623.78;5096282;28;20498;-66
2022/07/27 04:43:36;;;;;;;4.30;1.90;;;;;;;14.59;73.19;100614.97;5097920;28;20795;-66
2022/07/27 04:46:04;;;;;;;3.03;1.47;;;;;;;14.77;73.54;100614.91;5095447;28;21011;-66
2022/07/27 04:48:33;;;;;;;11.13;1.87;;;;;;;15.00;73.67;100616.06;5096113;28;20437;-66
2022/07/27 04:51:00;;;;;;;3.60;2.10;;;;;;;15.24;71.77;100626.09;5096740;28;20487;-66
2022/07/27 04:53:27;;;;;;;3.63;1.70;;;;;;;15.30;72.62;100618.38;5101312;28;20447;-67
2022/07/27 04:55:54;;;;;;;7.37;2.50;;;;;;;15.39;71.44;100623.63;5100077;28;20470;-67
2022/07/27 04:58:21;;;;;;;5.90;1.83;;;;;;;15.34;70.44;100625.13;5101664;28;20457;-67
2022/07/27 05:00:47;;;;;;;6.37;1.90;;;;;;;15.39;71.03;100629.00;5101313;28;20534;-67
2022/07/27 05:03:14;;;;;;;3.67;1.80;;;;;;;15.50;69.24;100637.81;5100179;28;20505;-67
2022/07/27 05:05:42;;;;;;;3.33;1.83;;;;;;;15.64;69.01;100629.13;5089202;28;20471;-67
2022/07/27 05:08:09;;;;;;;8.90;2.10;;;;;;;15.74;68.11;100631.66;5079156;28;20487;-67
2022/07/27 05:10:36;;;;;;;2.40;1.43;;;;;;;15.82;67.62;100637.94;5080090;28;20463;-67
2022/07/27 05:13:03;;;;;;;3.30;1.63;;;;;;;15.89;67.80;100640.81;5080824;28;20424;-68
2022/07/27 05:15:29;;;;;;;4.20;1.70;;;;;;;16.25;66.42;100648.63;5079609;28;20804;-67
2022/07/27 05:17:56;;;;;;;3.73;2.13;;;;;;;16.16;66.74;100644.22;5079798;28;20521;-67
2022/07/27 05:20:23;;;;;;;3.60;1.40;;;;;;;16.55;65.91;100646.25;5079913;28;20518;-67
2022/07/27 05:22:52;;;;;;;3.23;1.53;;;;;;;16.61;65.61;100650.94;5079648;28;20452;-67
2022/07/27 05:25:20;;;;;;;3.97;1.60;;;;;;;16.33;65.44;100650.47;5080174;28;20459;-67
2022/07/27 05:27:47;;;;;;;2.87;1.70;;;;;;;16.57;64.94;100650.44;5080699;28;20456;-67
2022/07/27 05:30:14;;;;;;;6.57;1.83;;;;;;;16.85;64.23;100647.41;5079765;28;20465;-67
2022/07/27 05:32:41;;;;;;;9.10;1.93;;;;;;;16.96;63.99;100646.22;5080126;28;20455;-67
2022/07/27 05:35:09;;;;;;;7.10;1.87;;;;;;;16.94;64.25;100649.09;5079084;28;20611;-67
2022/07/27 05:37:36;;;;;;;2.97;1.60;;;;;;;17.61;61.59;100660.50;5078697;28;21084;-67
2022/07/27 05:40:05;;;;;;;2.87;1.57;;;;;;;17.64;60.83;100654.75;5080310;28;20925;-67
2022/07/27 05:42:32;;;;;;;4.00;1.70;;;;;;;17.23;62.09;100655.75;5079633;28;20646;-68
2022/07/27 05:44:59;;;;;;;3.40;1.50;;;;;;;17.44;61.30;100662.44;5079619;28;20431;-67
2022/07/27 05:47:26;;;;;;;3.63;1.70;;;;;;;17.79;60.80;100665.63;5078210;28;20474;-67
2022/07/27 05:49:53;;;;;;;4.17;1.93;;;;;;;18.06;59.74;100661.63;5080253;28;20492;-67
2022/07/27 05:52:20;;;;;;;3.20;1.90;;;;;;;18.31;59.32;100661.44;5078177;28;20475;-67
2022/07/27 05:54:47;;;;;;;4.07;1.60;;;;;;;18.73;57.75;100671.75;5079506;28;20861;-67
2022/07/27 05:57:16;;;;;;;3.80;1.47;;;;;;;19.46;55.45;100672.00;5078969;28;20476;-67
2022/07/27 05:59:43;;;;;;;3.17;1.30;;;;;;;20.06;54.60;100670.00;5079361;28;20510;-67
2022/07/27 06:02:10;;;;;;;3.90;2.03;;;;;;;20.43;52.59;100678.94;5078695;28;21075;-67
2022/07/27 06:04:37;;;;;;;2.13;1.17;;;;;;;20.16;52.71;100677.84;5078626;28;20436;-67
2022/07/27 06:09:48;;;;;;;5.20;1.97;;;;;;;20.43;52.22;100689.81;5079915;28;20519;-67
2022/07/27 06:12:16;;;;;;;4.13;1.30;;;;;;;20.70;52.51;100692.78;5079069;28;20476;-67
2022/07/27 06:14:42;;;;;;;3.50;1.87;;;;;;;20.50;52.65;100692.56;5079150;28;20517;-68
2022/07/27 06:17:10;;;;;;;3.80;1.57;;;;;;;20.69;51.58;100688.38;5078077;28;20479;-67
2022/07/27 06:19:38;;;;;;;3.30;1.30;;;;;;;20.31;52.31;100692.19;5079762;28;20440;-68
2022/07/27 06:22:05;;;;;;;5.70;1.70;;;;;;;20.20;52.47;100689.16;5077556;28;20488;-68
2022/07/27 06:24:32;;;;;;;3.80;1.43;;;;;;;21.52;49.18;100690.41;5079445;28;20439;-68
2022/07/27 06:26:59;;;;;;;6.10;1.40;;;;;;;22.29;47.31;100694.69;5078036;28;20480;-68
2022/07/27 06:29:28;;;;;;;3.00;1.50;;;;;;;21.10;50.07;100690.34;5078004;28;20455;-68
2022/07/27 06:31:55;;;;;;;4.17;1.50;;;;;;;22.93;44.78;100689.66;5077508;28;20857;-68
2022/07/27 06:34:22;;;;;;;3.37;1.57;;;;;;;24.39;41.19;100691.03;5079516;28;20432;-68
2022/07/27 06:36:50;;;;;;;5.60;1.67;;;;;;;24.87;39.74;100696.97;5077408;28;20563;-68
2022/07/27 06:39:17;;;;;;;4.10;1.33;;;;;;;24.98;39.26;100696.22;5078882;28;20471;-68
2022/07/27 06:41:44;;;;;;;4.93;1.17;;;;;;;25.62;37.97;100690.53;5078309;27;20484;-68
2022/07/27 06:44:11;;;;;;;3.97;1.73;;;;;;;25.02;39.31;100694.72;5079093;28;20432;-68
2022/07/27 06:46:39;;;;;;;2.73;1.40;;;;;;;25.70;38.40;100693.78;5077780;28;20484;-68
2022/07/27 06:49:07;;;;;;;5.23;1.10;;;;;;;25.11;39.32;100693.38;5078862;28;20455;-68
2022/07/27 06:51:33;;;;;;;5.50;1.57;;;;;;;24.84;38.80;100690.03;5076935;28;20469;-68
2022/07/27 06:54:00;;;;;;;5.37;1.83;;;;;;;25.97;36.30;100698.97;5078744;28;20432;-68
2022/07/27 06:56:27;;;;;;;3.17;1.13;;;;;;;25.81;37.61;100697.63;5078108;28;20494;-68
2022/07/27 06:58:53;;;;;;;2.50;1.00;;;;;;;24.46;38.92;100699.19;5078168;28;20456;-68
2022/07/27 07:01:20;;;;;;;4.47;1.60;;;;;;;25.79;37.01;100697.03;5077565;28;20633;-68
2022/07/27 07:03:48;;;;;;;2.00;1.13;;;;;;;24.68;38.74;100699.66;5078611;28;20462;-68
2022/07/27 07:06:15;;;;;;;3.73;1.40;;;;;;;23.92;40.82;100698.66;5076620;28;20490;-68
2022/07/27 07:08:42;;;;;;;4.10;1.87;;;;;;;23.85;40.50;100692.38;5078771;28;20448;-68
2022/07/27 07:11:12;;;;;;;4.43;1.37;;;;;;;24.56;40.69;100698.69;5077851;28;20467;-68
2022/07/27 07:13:39;;;;;;;2.87;1.10;;;;;;;24.11;39.86;100696.03;5077825;28;20432;-68
2022/07/27 07:16:06;;;;;;;5.50;1.57;;;;;;;24.02;40.50;100695.44;5077505;28;20497;-68
2022/07/27 07:18:33;;;;;;;5.67;1.50;;;;;;;23.77;40.76;100704.38;5077512;28;20834;-68
2022/07/27 07:21:01;;;;;;;5.77;1.40;;;;;;;23.52;41.30;100690.59;5076845;28;20887;-67
2022/07/27 07:23:28;;;;;;;6.13;1.40;;;;;;;23.05;42.40;100700.75;5077796;28;20505;-67
2022/07/27 07:25:54;;;;;;;4.43;1.60;;;;;;;23.75;40.90;100698.28;5077624;28;20474;-68
2022/07/27 07:28:22;;;;;;;3.90;1.40;;;;;;;23.63;40.71;100695.41;5076174;28;20447;-68
2022/07/27 07:30:49;;;;;;;4.07;1.30;;;;;;;23.62;40.76;100704.63;5077533;28;20479;-68
2022/07/27 07:33:16;;;;;;;6.50;1.70;;;;;;;25.10;37.88;100704.53;5077781;28;20457;-68
2022/07/27 07:35:42;;;;;;;4.37;0.80;;;;;;;26.60;34.36;100707.72;5076897;28;20476;-67
2022/07/27 07:38:11;;;;;;;4.10;1.10;;;;;;;25.49;36.43;100706.03;5077224;28;20479;-68
2022/07/27 07:40:37;;;;;;;3.50;0.93;;;;;;;23.76;39.72;100699.94;5076917;28;21069;-68
2022/07/27 07:43:04;;;;;;;5.27;1.70;;;;;;;22.83;41.60;100702.88;5076995;28;20444;-68
2022/07/27 07:45:36;;;;;;;3.30;1.17;;;;;;;24.33;38.65;100704.72;5076682;28;20537;-68
2022/07/27 07:48:04;;;;;;;5.57;1.30;;;;;;;24.72;37.32;100700.91;5076629;28;20933;-68
2022/07/27 07:50:31;;;;;;;3.40;1.30;;;;;;;26.16;35.02;100699.75;5076646;28;20525;-68
2022/07/27 07:52:58;;;;;;;4.17;0.87;;;;;;;26.92;34.33;100705.50;5077553;28;21014;-68
2022/07/27 07:55:27;;;;;;;5.23;1.77;;;;;;;27.91;32.73;100712.91;5076732;28;20428;-68
2022/07/27 07:57:54;;;;;;;3.90;1.20;;;;;;;25.84;35.74;100708.13;5076974;28;20455;-68
2022/07/27 08:00:21;;;;;;;5.17;1.40;;;;;;;23.45;41.04;100714.34;5077254;28;20432;-68
2022/07/27 08:02:49;;;;;;;5.10;1.47;;;;;;;23.03;41.24;100702.88;5077258;28;21058;-68
2022/07/27 08:05:17;;;;;;;4.67;1.40;;;;;;;20.99;45.94;100708.06;5075946;28;21037;-68
2022/07/27 08:07:45;;;;;;;4.53;0.97;;;;;;;20.67;47.41;100701.31;5076440;28;20459;-67
2022/07/27 08:10:13;;;;;;;8.17;1.30;;;;;;;21.48;44.20;100702.75;5077445;28;20501;-67
2022/07/27 08:12:43;;;;;;;5.03;1.57;;;;;;;21.43;44.93;100700.59;5076910;28;20482;-67
2022/07/27 08:15:11;;;;;;;5.90;1.30;;;;;;;21.74;43.88;100702.03;5077281;28;20444;-67
2022/07/27 08:17:38;;;;;;;5.00;1.33;;;;;;;21.83;43.73;100713.59;5076514;28;20814;-67
2022/07/27 08:20:07;;;;;;;7.00;1.50;;;;;;;21.84;43.98;100705.22;5076929;28;20460;-67
2022/07/27 08:22:34;;;;;;;4.80;1.40;;;;;;;21.80;41.77;100710.22;5076347;28;20494;-67
2022/07/27 08:25:01;;;;;;;4.93;1.20;;;;;;;21.44;42.27;100716.72;5077112;28;20436;-67
2022/07/27 08:27:28;;;;;;;1.93;1.10;;;;;;;21.13;42.87;100719.03;5077580;28;20932;-67
2022/07/27 08:29:57;;;;;;;5.90;1.20;;;;;;;20.73;44.54;100721.41;5081661;28;20424;-67
2022/07/27 08:32:23;;;;;;;2.90;1.33;;;;;;;19.99;47.13;100715.22;5080688;28;20495;-67
2022/07/27 08:34:50;;;;;;;3.83;1.30;;;;;;;19.99;45.43;100723.38;5080622;28;20883;-67
2022/07/27 08:37:17;;;;;;;2.37;1.20;;;;;;;19.75;46.90;100711.84;5079389;28;20484;-67
2022/07/27 08:39:44;;;;;;;5.03;1.37;;;;;;;20.18;46.86;100711.06;5080534;28;20432;-67
2022/07/27 08:42:11;;;;;;;6.23;1.20;;;;;;;20.32;46.23;100709.31;5079341;28;20541;-67
2022/07/27 08:44:40;;;;;;;3.17;0.97;;;;;;;21.85;42.42;100703.31;5081020;28;20984;-67
2022/07/27 08:47:09;;;;;;;2.63;1.07;;;;;;;23.64;39.75;100698.97;5079390;28;20468;-67
2022/07/27 08:49:37;;;;;;;5.50;1.10;;;;;;;25.36;36.60;100708.91;5079164;28;20469;-67
2022/07/27 08:52:04;;;;;;;4.50;1.07;;;;;;;25.06;36.18;100712.34;5081214;28;20600;-67
2022/07/27 08:54:32;;;;;;;2.70;1.03;;;;;;;24.20;36.41;100714.69;5081469;28;20432;-67
2022/07/27 08:56:59;;;;;;;4.20;1.43;;;;;;;22.11;40.19;100714.28;5080962;28;20521;-67
2022/07/27 08:59:26;;;;;;;4.70;1.27;;;;;;;22.09;42.10;100713.66;5082395;28;20460;-67
2022/07/27 09:01:52;;;;;;;2.80;1.13;;;;;;;21.00;43.85;100719.75;5081503;28;20521;-67
2022/07/27 09:04:21;;;;;;;2.60;0.70;;;;;;;21.04;42.19;100727.34;5081715;28;20483;-67
2022/07/27 09:06:49;;;;;;;2.83;0.93;;;;;;;20.59;44.05;100717.72;5080376;28;20865;-67
2022/07/27 09:09:18;;;;;;;7.30;1.50;;;;;;;20.82;44.21;100712.94;5082014;28;20420;-67
2022/07/27 09:12:02;;;;;;;6.20;1.80;;;;;;;21.02;43.93;100721.25;5080437;28;20532;-67
2022/07/27 09:14:30;;;;;;;4.13;1.17;;;;;;;20.17;45.74;100712.06;5082347;28;20428;-67
2022/07/27 09:16:57;;;;;;;5.70;1.93;;;;;;;22.73;40.79;100714.22;5080554;28;20513;-67
2022/07/27 09:19:25;;;;;;;4.07;1.23;;;;;;;21.50;41.07;100715.09;5081538;28;20510;-67
2022/07/27 09:21:52;;;;;;;2.53;1.13;;;;;;;22.02;41.77;100711.97;5080757;28;20491;-67
2022/07/27 09:24:20;;;;;;;3.23;1.03;;;;;;;22.77;38.39;100712.72;5081915;28;20466;-67
2022/07/27 09:26:48;;;;;;;5.00;1.30;;;;;;;23.01;39.63;100713.16;5080335;28;21048;-67
2022/07/27 09:29:15;;;;;;;3.70;1.30;;;;;;;24.16;35.87;100716.16;5081420;28;20432;-67
2022/07/27 09:31:44;;;;;;;3.03;0.90;;;;;;;23.86;35.78;100716.75;5080431;28;20476;-67
2022/07/27 09:34:12;;;;;;;3.40;0.80;;;;;;;22.84;36.83;100718.19;5080599;28;20428;-67
2022/07/27 09:36:52;;;;;;;3.00;1.00;;;;;;;21.95;37.85;100725.56;5079726;28;20483;-67
2022/07/27 09:39:20;;;;;;;3.10;1.17;;;;;;;21.76;40.87;100724.44;5080102;28;20803;-67
2022/07/27 09:41:48;;;;;;;2.10;0.80;;;;;;;22.02;39.09;100720.13;5079545;28;20476;-67
2022/07/27 09:44:15;;;;;;;5.90;0.83;;;;;;;22.11;36.39;100721.63;5080927;28;20447;-67
2022/07/27 09:46:43;;;;;;;9.23;1.67;;;;;;;22.43;36.65;100722.78;5079740;28;20509;-67
2022/07/27 09:49:26;;;;;;;7.63;1.27;;;;;;;21.97;36.18;100718.84;5079715;28;20447;-67
2022/07/27 09:51:55;;;;;;;4.47;0.90;;;;;;;21.91;36.82;100713.41;5080035;28;20472;-67
2022/07/27 09:54:22;;;;;;;3.30;0.90;;;;;;;21.03;37.03;100714.78;5080435;28;20968;-67
2022/07/27 09:56:58;;;;;;;3.37;0.90;;;;;;;22.44;35.95;100719.00;5079424;28;20480;-67
2022/07/27 09:59:25;;;;;;;3.10;1.03;;;;;;;23.07;32.75;100715.91;5080974;28;20519;-67
2022/07/27 10:01:54;;;;;;;2.53;0.60;;;;;;;23.99;32.67;100715.00;5079361;28;20526;-67
2022/07/27 10:04:22;;;;;;;2.20;0.67;;;;;;;24.40;32.43;100716.44;5080418;28;20458;-67
2022/07/27 10:06:48;;;;;;;2.40;0.70;;;;;;;25.61;29.58;100716.25;5079538;28;20475;-67
2022/07/27 10:09:17;;;;;;;3.00;0.93;;;;;;;24.55;30.83;100710.72;5080422;28;20428;-67
2022/07/27 10:11:45;;;;;;;5.57;1.40;;;;;;;23.84;32.33;100709.84;5079534;28;20664;-67
2022/07/27 10:14:12;;;;;;;4.87;1.00;;;;;;;24.52;31.85;100709.22;5080276;28;20424;-67
2022/07/27 10:16:39;;;;;;;1.03;0.50;;;;;;;23.61;33.79;100707.56;5079399;28;20475;-67
2022/07/27 10:19:12;;;;;;;2.93;1.30;;;;;;;23.43;34.55;100716.47;5079690;28;20421;-67
2022/07/27 10:21:41;;;;;;;2.50;0.80;;;;;;;22.71;35.50;100717.16;5079251;28;20540;-67
2022/07/27 10:24:10;;;;;;;3.27;1.00;;;;;;;22.73;36.58;100723.22;5080159;28;20434;-66
2022/07/27 10:26:40;;;;;;;2.60;1.33;;;;;;;22.26;38.88;100716.03;5079035;28;20476;-66
2022/07/27 10:29:16;;;;;;;7.20;1.00;;;;;;;22.72;37.39;100728.88;5079714;28;20428;-68
2022/07/27 10:31:45;;;;;;;2.33;0.73;;;;;;;22.63;36.13;100721.97;5079345;28;20985;-67
2022/07/27 10:34:12;;;;;;;3.00;0.87;;;;;;;22.91;36.35;100721.75;5079619;28;20467;-67
2022/07/27 10:36:52;;;;;;;6.93;1.00;;;;;;;22.64;36.25;100726.38;5078367;28;20583;-67
2022/07/27 10:39:36;;;;;;;6.27;1.23;;;;;;;22.27;37.92;100721.28;5080038;28;20425;-67
2022/07/27 10:42:28;;;;;;;2.97;1.10;;;;;;;23.37;35.71;100726.34;5078768;28;20483;-68
2022/07/27 10:44:57;;;;;;;3.20;1.00;;;;;;;24.52;34.42;100722.88;5079639;28;20452;-68
2022/07/27 10:47:33;;;;;;;7.47;1.50;;;;;;;24.68;34.54;100729.72;5077640;28;20632;-67
2022/07/27 10:50:25;;;;;;;3.60;1.10;;;;;;;24.60;33.72;100730.03;5078628;28;20534;-68
2022/07/27 10:52:54;;;;;;;1.70;1.07;;;;;;;23.85;35.86;100727.88;5079076;28;21008;-68
2022/07/27 10:55:57;;;;;;;2.90;1.00;;;;;;;24.67;35.34;100724.47;5076106;28;20458;-68
2022/07/27 10:58:46;;;;;;;2.70;1.00;;;;;;;25.26;33.31;100725.88;5059509;28;20433;-68
2022/07/27 11:01:14;;;;;;;2.97;0.80;;;;;;;26.40;31.53;100719.81;5058904;28;20477;-68
2022/07/27 11:03:41;;;;;;;5.20;0.90;;;;;;;26.82;29.95;100718.97;5058872;28;20488;-68
2022/07/27 11:06:09;;;;;;;4.10;0.93;;;;;;;25.53;32.21;100720.94;5058497;28;20476;-68
2022/07/27 11:08:37;;;;;;;2.90;1.00;;;;;;;26.25;30.03;100728.50;5059195;28;20452;-68
2022/07/27 11:11:06;;;;;;;2.37;0.77;;;;;;;27.53;27.98;100725.31;5058335;28;20468;-68
2022/07/27 11:13:33;;;;;;;2.40;0.80;;;;;;;28.00;27.77;100735.34;5058929;28;20449;-68
2022/07/27 11:16:02;;;;;;;4.60;1.27;;;;;;;28.31;26.87;100728.50;5058799;28;20468;-66
2022/07/27 11:18:31;;;;;;;7.37;1.33;;;;;;;26.29;30.52;100729.69;5058244;28;20465;-66
2022/07/27 11:21:13;;;;;;;4.60;1.07;;;;;;;27.33;29.03;100725.69;5058549;28;20504;-68
2022/07/27 11:23:40;;;;;;;2.07;0.60;;;;;;;26.12;30.65;100723.19;5058880;28;20488;-66
2022/07/27 11:26:07;;;;;;;2.80;1.03;;;;;;;26.17;30.71;100726.06;5057499;28;20476;-66
2022/07/27 11:28:35;;;;;;;3.43;1.30;;;;;;;25.46;31.24;100728.41;5058984;28;20474;-66
2022/07/27 11:31:04;;;;;;;6.43;1.90;;;;;;;25.82;31.29;100734.09;5058621;28;21054;-66
2022/07/27 11:33:31;;;;;;;9.70;1.73;;;;;;;25.54;32.79;100717.16;5057774;28;20453;-67